sensor_id;sensor_type;location;lat;lon;timestamp;pressure;altitude;pressure_sealevel;temperature;humidity
42591;BME280;28218;53.342;-6.216;2022-07-22T00:02:00;102190.31;;;17.16;100.00
42591;BME280;28218;53.342;-6.216;2022-07-22T00:04:28;102190.69;;;17.13;100.00
42591;BME280;28218;53.342;-6.216;2022-07-22T00:06:58;102182.50;;;17.15;100.00
42591;BME280;28218;53.342;-6.216;2022-07-22T00:09:26;102180.84;;;17.14;100.00
42591;BME280;28218;53.342;-6.216;2022-07-22T00:11:55;102180.38;;;17.10;100.00
42591;BME280;28218;53.342;-6.216;2022-07-22T00:14:23;102179.53;;;17.09;100.00
42591;BME280;28218;53.342;-6.216;2022-07-22T00:16:51;102175.88;;;17.10;100.00
42591;BME280;28218;53.342;-6.216;2022-07-22T00:19:20;102173.03;;;17.12;100.00
42591;BME280;28218;53.342;-6.216;2022-07-22T00:21:48;102181.88;;;17.13;100.00
42591;BME280;28218;53.342;-6.216;2022-07-22T00:24:18;102179.88;;;17.06;100.00
42591;BME280;28218;53.342;-6.216;2022-07-22T00:26:46;102170.06;;;17.07;100.00
42591;BME280;28218;53.342;-6.216;2022-07-22T00:29:14;102175.38;;;17.07;100.00
42591;BME280;28218;53.342;-6.216;2022-07-22T00:31:43;102181.19;;;17.10;100.00
42591;BME280;28218;53.342;-6.216;2022-07-22T00:34:11;102184.53;;;17.13;100.00
42591;BME280;28218;53.342;-6.216;2022-07-22T00:36:39;102186.34;;;17.12;100.00
42591;BME280;28218;53.342;-6.216;2022-07-22T00:39:08;102177.53;;;17.11;100.00
42591;BME280;28218;53.342;-6.216;2022-07-22T00:41:37;102181.19;;;17.10;100.00
42591;BME280;28218;53.342;-6.216;2022-07-22T00:44:07;102178.34;;;17.12;100.00
42591;BME280;28218;53.342;-6.216;2022-07-22T00:46:37;102182.50;;;17.15;100.00
42591;BME280;28218;53.342;-6.216;2022-07-22T00:49:07;102181.69;;;17.14;100.00
42591;BME280;28218;53.342;-6.216;2022-07-22T00:51:36;102188.84;;;17.14;100.00
42591;BME280;28218;53.342;-6.216;2022-07-22T00:54:06;102175.53;;;17.14;100.00
42591;BME280;28218;53.342;-6.216;2022-07-22T00:56:35;102171.38;;;17.11;100.00
42591;BME280;28218;53.342;-6.216;2022-07-22T00:59:09;102172.19;;;17.11;100.00
42591;BME280;28218;53.342;-6.216;2022-07-22T01:01:38;102179.34;;;17.11;100.00
42591;BME280;28218;53.342;-6.216;2022-07-22T01:04:07;102166.22;;;17.09;100.00
42591;BME280;28218;53.342;-6.216;2022-07-22T01:06:35;102159.06;;;17.10;100.00
42591;BME280;28218;53.342;-6.216;2022-07-22T01:09:03;102149.06;;;17.12;100.00
42591;BME280;28218;53.342;-6.216;2022-07-22T01:11:32;102139.06;;;17.14;100.00
42591;BME280;28218;53.342;-6.216;2022-07-22T01:14:00;102140.19;;;17.20;100.00
42591;BME280;28218;53.342;-6.216;2022-07-22T01:16:31;102142.13;;;17.26;100.00
42591;BME280;28218;53.342;-6.216;2022-07-22T01:18:59;102148.47;;;17.25;100.00
42591;BME280;28218;53.342;-6.216;2022-07-22T01:21:29;102144.97;;;17.24;100.00
42591;BME280;28218;53.342;-6.216;2022-07-22T01:23:58;102158.13;;;17.26;100.00
42591;BME280;28218;53.342;-6.216;2022-07-22T01:26:26;102146.16;;;17.22;100.00
42591;BME280;28218;53.342;-6.216;2022-07-22T01:28:54;102153.03;;;17.16;100.00
42591;BME280;28218;53.342;-6.216;2022-07-22T01:31:23;102136.22;;;17.16;100.00
42591;BME280;28218;53.342;-6.216;2022-07-22T01:33:51;102139.41;;;17.11;100.00
42591;BME280;28218;53.342;-6.216;2022-07-22T01:36:20;102133.25;;;17.10;100.00
42591;BME280;28218;53.342;-6.216;2022-07-22T01:38:50;102134.09;;;17.11;100.00
42591;BME280;28218;53.342;-6.216;2022-07-22T01:41:19;102127.94;;;17.10;100.00
42591;BME280;28218;53.342;-6.216;2022-07-22T01:43:47;102126.09;;;17.11;100.00
42591;BME280;28218;53.342;-6.216;2022-07-22T01:46:15;102122.94;;;17.07;100.00
42591;BME280;28218;53.342;-6.216;2022-07-22T01:48:45;102118.63;;;17.06;100.00
42591;BME280;28218;53.342;-6.216;2022-07-22T01:51:13;102117.63;;;17.07;100.00
42591;BME280;28218;53.342;-6.216;2022-07-22T01:53:42;102120.28;;;17.07;100.00
42591;BME280;28218;53.342;-6.216;2022-07-22T01:56:12;102128.66;;;17.04;100.00
42591;BME280;28218;53.342;-6.216;2022-07-22T01:58:40;102124.16;;;17.05;100.00
42591;BME280;28218;53.342;-6.216;2022-07-22T02:01:09;102122.31;;;17.05;100.00
42591;BME280;28218;53.342;-6.216;2022-07-22T02:03:37;102122.31;;;17.05;100.00
42591;BME280;28218;53.342;-6.216;2022-07-22T02:06:06;102124.97;;;17.05;100.00
42591;BME280;28218;53.342;-6.216;2022-07-22T02:08:34;102125.78;;;17.06;100.00
42591;BME280;28218;53.342;-6.216;2022-07-22T02:11:03;102125.78;;;17.06;100.00
42591;BME280;28218;53.342;-6.216;2022-07-22T02:13:32;102122.94;;;17.07;100.00
42591;BME280;28218;53.342;-6.216;2022-07-22T02:16:00;102113.97;;;17.08;100.00
42591;BME280;28218;53.342;-6.216;2022-07-22T02:18:29;102108.66;;;17.08;100.00
42591;BME280;28218;53.342;-6.216;2022-07-22T02:20:57;102112.13;;;17.09;100.00
42591;BME280;28218;53.342;-6.216;2022-07-22T02:23:25;102111.13;;;17.10;100.00
42591;BME280;28218;53.342;-6.216;2022-07-22T02:25:53;102100.47;;;17.10;100.00
42591;BME280;28218;53.342;-6.216;2022-07-22T02:28:22;102102.94;;;17.11;100.00
42591;BME280;28218;53.342;-6.216;2022-07-22T02:30:51;102104.63;;;17.13;100.00
42591;BME280;28218;53.342;-6.216;2022-07-22T02:33:20;102102.94;;;17.11;100.00
42591;BME280;28218;53.342;-6.216;2022-07-22T02:35:48;102103.97;;;17.10;100.00
42591;BME280;28218;53.342;-6.216;2022-07-22T02:38:16;102102.13;;;17.11;100.00
42591;BME280;28218;53.342;-6.216;2022-07-22T02:40:44;102094.31;;;17.09;100.00
42591;BME280;28218;53.342;-6.216;2022-07-22T02:43:13;102094.31;;;17.09;100.00
42591;BME280;28218;53.342;-6.216;2022-07-22T02:45:42;102098.00;;;17.08;100.00
42591;BME280;28218;53.342;-6.216;2022-07-22T02:48:11;102090.84;;;17.09;100.00
42591;BME280;28218;53.342;-6.216;2022-07-22T02:50:45;102099.66;;;17.09;100.00
42591;BME280;28218;53.342;-6.216;2022-07-22T02:53:13;102096.31;;;17.07;100.00
42591;BME280;28218;53.342;-6.216;2022-07-22T02:55:41;102097.53;;;17.05;100.00
42591;BME280;28218;53.342;-6.216;2022-07-22T02:58:10;102093.00;;;17.05;100.00
42591;BME280;28218;53.342;-6.216;2022-07-22T03:00:38;102082.38;;;17.05;100.00
42591;BME280;28218;53.342;-6.216;2022-07-22T03:03:06;102079.69;;;17.05;100.00
42591;BME280;28218;53.342;-6.216;2022-07-22T03:05:36;102085.03;;;17.05;100.00
42591;BME280;28218;53.342;-6.216;2022-07-22T03:08:04;102091.19;;;17.06;100.00
42591;BME280;28218;53.342;-6.216;2022-07-22T03:10:32;102091.38;;;17.04;100.00
42591;BME280;28218;53.342;-6.216;2022-07-22T03:13:01;102086.53;;;17.08;100.00
42591;BME280;28218;53.342;-6.216;2022-07-22T03:15:29;102074.19;;;17.07;100.00
42591;BME280;28218;53.342;-6.216;2022-07-22T03:17:57;102078.53;;;17.08;100.00
42591;BME280;28218;53.342;-6.216;2022-07-22T03:20:25;102080.34;;;17.07;100.00
42591;BME280;28218;53.342;-6.216;2022-07-22T03:22:55;102075.00;;;17.07;100.00
42591;BME280;28218;53.342;-6.216;2022-07-22T03:25:23;102068.03;;;17.06;100.00
42591;BME280;28218;53.342;-6.216;2022-07-22T03:27:51;102067.03;;;17.07;100.00
42591;BME280;28218;53.342;-6.216;2022-07-22T03:30:19;102063.72;;;17.05;100.00
42591;BME280;28218;53.342;-6.216;2022-07-22T03:32:47;102059.41;;;17.04;100.00
42591;BME280;28218;53.342;-6.216;2022-07-22T03:35:17;102054.72;;;17.06;100.00
42591;BME280;28218;53.342;-6.216;2022-07-22T03:37:45;102048.56;;;17.06;100.00
42591;BME280;28218;53.342;-6.216;2022-07-22T03:40:15;102052.06;;;17.06;100.00
42591;BME280;28218;53.342;-6.216;2022-07-22T03:42:44;102046.09;;;17.04;100.00
42591;BME280;28218;53.342;-6.216;2022-07-22T03:45:12;102048.75;;;17.04;100.00
42591;BME280;28218;53.342;-6.216;2022-07-22T03:47:41;102049.59;;;17.05;100.00
42591;BME280;28218;53.342;-6.216;2022-07-22T03:50:09;102046.91;;;17.05;100.00
42591;BME280;28218;53.342;-6.216;2022-07-22T03:52:37;102046.09;;;17.04;100.00
42591;BME280;28218;53.342;-6.216;2022-07-22T03:55:06;102045.09;;;17.05;100.00
42591;BME280;28218;53.342;-6.216;2022-07-22T03:57:36;102047.09;;;17.03;100.00
42591;BME280;28218;53.342;-6.216;2022-07-22T04:00:05;102044.44;;;17.03;100.00
42591;BME280;28218;53.342;-6.216;2022-07-22T04:02:34;102036.81;;;17.00;100.00
42591;BME280;28218;53.342;-6.216;2022-07-22T04:05:02;102038.44;;;17.01;100.00
42591;BME280;28218;53.342;-6.216;2022-07-22T04:07:31;102037.44;;;17.02;100.00
42591;BME280;28218;53.342;-6.216;2022-07-22T04:09:59;102036.81;;;17.00;100.00
42591;BME280;28218;53.342;-6.216;2022-07-22T04:12:33;102030.00;;;16.98;100.00
42591;BME280;28218;53.342;-6.216;2022-07-22T04:15:04;102026.34;;;16.99;100.00
42591;BME280;28218;53.342;-6.216;2022-07-22T04:17:33;102030.00;;;16.98;100.00
42591;BME280;28218;53.342;-6.216;2022-07-22T04:20:02;102030.19;;;16.96;100.00
42591;BME280;28218;53.342;-6.216;2022-07-22T04:22:30;102014.19;;;16.96;100.00
42591;BME280;28218;53.342;-6.216;2022-07-22T04:24:58;102023.84;;;16.97;100.00
42591;BME280;28218;53.342;-6.216;2022-07-22T04:27:26;102018.50;;;16.97;100.00
42591;BME280;28218;53.342;-6.216;2022-07-22T04:29:55;102021.38;;;16.96;100.00
42591;BME280;28218;53.342;-6.216;2022-07-22T04:32:24;102018.88;;;16.94;100.00
42591;BME280;28218;53.342;-6.216;2022-07-22T04:34:52;102017.06;;;16.95;100.00
42591;BME280;28218;53.342;-6.216;2022-07-22T04:37:21;102015.75;;;16.91;100.00
42591;BME280;28218;53.342;-6.216;2022-07-22T04:39:49;102010.25;;;16.92;100.00
42591;BME280;28218;53.342;-6.216;2022-07-22T04:42:18;102013.72;;;16.93;100.00
42591;BME280;28218;53.342;-6.216;2022-07-22T04:44:46;102009.22;;;16.93;100.00
42591;BME280;28218;53.342;-6.216;2022-07-22T04:47:14;102010.41;;;16.91;100.00
42591;BME280;28218;53.342;-6.216;2022-07-22T04:49:44;102007.94;;;16.89;100.00
42591;BME280;28218;53.342;-6.216;2022-07-22T04:52:12;102014.09;;;16.90;100.00
42591;BME280;28218;53.342;-6.216;2022-07-22T04:54:41;102007.94;;;16.89;100.00
42591;BME280;28218;53.342;-6.216;2022-07-22T04:57:09;102011.44;;;16.90;100.00
42591;BME280;28218;53.342;-6.216;2022-07-22T04:59:37;102008.59;;;16.91;100.00
42591;BME280;28218;53.342;-6.216;2022-07-22T05:02:06;102013.28;;;16.89;100.00
42591;BME280;28218;53.342;-6.216;2022-07-22T05:04:34;102002.97;;;16.86;100.00
42591;BME280;28218;53.342;-6.216;2022-07-22T05:07:04;102003.16;;;16.84;100.00
42591;BME280;28218;53.342;-6.216;2022-07-22T05:09:32;101997.84;;;16.84;100.00
42591;BME280;28218;53.342;-6.216;2022-07-22T05:12:00;102004.34;;;16.82;100.00
42591;BME280;28218;53.342;-6.216;2022-07-22T05:14:28;101996.97;;;16.84;100.00
42591;BME280;28218;53.342;-6.216;2022-07-22T05:16:57;101992.31;;;16.86;100.00
42591;BME280;28218;53.342;-6.216;2022-07-22T05:19:25;101991.97;;;16.89;100.00
42591;BME280;28218;53.342;-6.216;2022-07-22T05:21:53;101992.13;;;16.88;100.00
42591;BME280;28218;53.342;-6.216;2022-07-22T05:24:23;101992.81;;;16.90;100.00
42591;BME280;28218;53.342;-6.216;2022-07-22T05:26:51;101989.47;;;16.88;100.00
42591;BME280;28218;53.342;-6.216;2022-07-22T05:29:19;101995.28;;;16.91;100.00
42591;BME280;28218;53.342;-6.216;2022-07-22T05:31:47;101994.25;;;16.92;100.00
42591;BME280;28218;53.342;-6.216;2022-07-22T05:34:16;101993.63;;;16.90;100.00
42591;BME280;28218;53.342;-6.216;2022-07-22T05:36:44;101994.44;;;16.91;100.00
42591;BME280;28218;53.342;-6.216;2022-07-22T05:39:12;101996.09;;;16.92;100.00
42591;BME280;28218;53.342;-6.216;2022-07-22T05:41:42;101994.25;;;16.92;100.00
42591;BME280;28218;53.342;-6.216;2022-07-22T05:44:11;102000.41;;;16.93;100.00
42591;BME280;28218;53.342;-6.216;2022-07-22T05:46:39;101998.22;;;16.96;100.00
42591;BME280;28218;53.342;-6.216;2022-07-22T05:49:07;101991.88;;;16.97;100.00
42591;BME280;28218;53.342;-6.216;2022-07-22T05:51:35;102001.19;;;17.01;100.00
42591;BME280;28218;53.342;-6.216;2022-07-22T05:54:04;101995.31;;;17.06;100.00
42591;BME280;28218;53.342;-6.216;2022-07-22T05:56:32;101987.81;;;17.09;100.00
42591;BME280;28218;53.342;-6.216;2022-07-22T05:59:02;101984.78;;;17.13;100.00
42591;BME280;28218;53.342;-6.216;2022-07-22T06:01:30;101983.38;;;17.17;100.00
42591;BME280;28218;53.342;-6.216;2022-07-22T06:03:58;101981.13;;;17.28;100.00
42591;BME280;28218;53.342;-6.216;2022-07-22T06:06:26;101975.88;;;17.35;100.00
42591;BME280;28218;53.342;-6.216;2022-07-22T06:08:55;101970.84;;;17.40;100.00
42591;BME280;28218;53.342;-6.216;2022-07-22T06:11:23;101957.44;;;17.48;100.00
42591;BME280;28218;53.342;-6.216;2022-07-22T06:13:52;101963.69;;;17.55;100.00
42591;BME280;28218;53.342;-6.216;2022-07-22T06:16:22;101963.41;;;17.65;100.00
42591;BME280;28218;53.342;-6.216;2022-07-22T06:18:50;101965.06;;;17.66;100.00
42591;BME280;28218;53.342;-6.216;2022-07-22T06:21:19;101964.50;;;17.71;100.00
42591;BME280;28218;53.342;-6.216;2022-07-22T06:23:47;101969.19;;;17.69;100.00
42591;BME280;28218;53.342;-6.216;2022-07-22T06:26:16;101969.84;;;17.71;100.00
42591;BME280;28218;53.342;-6.216;2022-07-22T06:28:44;101977.84;;;17.71;100.00
42591;BME280;28218;53.342;-6.216;2022-07-22T06:31:12;101976.34;;;17.68;100.00
42591;BME280;28218;53.342;-6.216;2022-07-22T06:33:42;101965.53;;;17.70;100.00
42591;BME280;28218;53.342;-6.216;2022-07-22T06:36:10;101978.88;;;17.70;100.00
42591;BME280;28218;53.342;-6.216;2022-07-22T06:38:41;101971.03;;;17.68;100.00
42591;BME280;28218;53.342;-6.216;2022-07-22T06:41:09;101980.88;;;17.68;100.00
42591;BME280;28218;53.342;-6.216;2022-07-22T06:43:37;101969.56;;;17.66;100.00
42591;BME280;28218;53.342;-6.216;2022-07-22T06:46:05;101976.56;;;17.67;100.00
42591;BME280;28218;53.342;-6.216;2022-07-22T06:48:34;101972.25;;;17.66;100.00
42591;BME280;28218;53.342;-6.216;2022-07-22T06:51:04;101969.56;;;17.66;100.00
42591;BME280;28218;53.342;-6.216;2022-07-22T06:53:32;101971.84;;;17.69;100.00
42591;BME280;28218;53.342;-6.216;2022-07-22T06:56:01;101961.19;;;17.69;100.00
42591;BME280;28218;53.342;-6.216;2022-07-22T06:58:33;101966.72;;;17.67;100.00
42591;BME280;28218;53.342;-6.216;2022-07-22T07:01:02;101969.03;;;17.70;100.00
42591;BME280;28218;53.342;-6.216;2022-07-22T07:03:30;101974.47;;;17.77;100.00
42591;BME280;28218;53.342;-6.216;2022-07-22T07:06:01;101971.16;;;17.75;100.00
42591;BME280;28218;53.342;-6.216;2022-07-22T07:08:32;101967.75;;;17.81;100.00
42591;BME280;28218;53.342;-6.216;2022-07-22T07:11:01;101970.41;;;17.81;100.00
42591;BME280;28218;53.342;-6.216;2022-07-22T07:13:29;101978.22;;;17.82;100.00
42591;BME280;28218;53.342;-6.216;2022-07-22T07:15:57;101968.38;;;17.83;100.00
42591;BME280;28218;53.342;-6.216;2022-07-22T07:18:25;101970.69;;;17.86;100.00
42591;BME280;28218;53.342;-6.216;2022-07-22T07:20:54;101967.66;;;17.89;100.00
42591;BME280;28218;53.342;-6.216;2022-07-22T07:23:22;101961.13;;;17.92;100.00
42591;BME280;28218;53.342;-6.216;2022-07-22T07:25:52;101966.63;;;17.90;100.00
42591;BME280;28218;53.342;-6.216;2022-07-22T07:28:20;101960.69;;;17.88;100.00
42591;BME280;28218;53.342;-6.216;2022-07-22T07:30:49;101962.31;;;17.89;100.00
42591;BME280;28218;53.342;-6.216;2022-07-22T07:33:17;101967.66;;;17.89;100.00
42591;BME280;28218;53.342;-6.216;2022-07-22T07:35:46;101970.13;;;17.91;100.00
42591;BME280;28218;53.342;-6.216;2022-07-22T07:38:15;101972.44;;;17.94;100.00
42591;BME280;28218;53.342;-6.216;2022-07-22T07:40:43;101967.09;;;17.94;100.00
42591;BME280;28218;53.342;-6.216;2022-07-22T07:43:13;101969.78;;;17.94;100.00
42591;BME280;28218;53.342;-6.216;2022-07-22T07:45:41;101964.03;;;17.97;100.00
42591;BME280;28218;53.342;-6.216;2022-07-22T07:48:09;101977.63;;;18.02;100.00
42591;BME280;28218;53.342;-6.216;2022-07-22T07:50:38;101966.25;;;18.08;100.00
42591;BME280;28218;53.342;-6.216;2022-07-22T07:53:07;101974.06;;;18.09;100.00
42591;BME280;28218;53.342;-6.216;2022-07-22T07:55:35;101968.97;;;18.14;100.00
42591;BME280;28218;53.342;-6.216;2022-07-22T07:58:05;101968.22;;;18.21;100.00
42591;BME280;28218;53.342;-6.216;2022-07-22T08:00:35;101964.31;;;18.17;100.00
42591;BME280;28218;53.342;-6.216;2022-07-22T08:03:06;101970.53;;;18.24;100.00
42591;BME280;28218;53.342;-6.216;2022-07-22T08:05:35;101960.75;;;18.31;100.00
42591;BME280;28218;53.342;-6.216;2022-07-22T08:08:07;101968.63;;;18.39;100.00
42591;BME280;28218;53.342;-6.216;2022-07-22T08:10:40;101959.06;;;18.45;100.00
42591;BME280;28218;53.342;-6.216;2022-07-22T08:13:24;101954.41;;;18.53;100.00
42591;BME280;28218;53.342;-6.216;2022-07-22T08:15:54;101955.94;;;18.62;100.00
42591;BME280;28218;53.342;-6.216;2022-07-22T08:18:24;101947.00;;;18.70;100.00
42591;BME280;28218;53.342;-6.216;2022-07-22T08:20:53;101949.97;;;18.82;100.00
42591;BME280;28218;53.342;-6.216;2022-07-22T08:23:22;101944.13;;;18.93;100.00
42591;BME280;28218;53.342;-6.216;2022-07-22T08:25:52;101947.47;;;19.02;100.00
42591;BME280;28218;53.342;-6.216;2022-07-22T08:28:21;101946.31;;;19.11;100.00
42591;BME280;28218;53.342;-6.216;2022-07-22T08:30:49;101945.16;;;19.20;100.00
42591;BME280;28218;53.342;-6.216;2022-07-22T08:33:19;101939.84;;;19.27;100.00
42591;BME280;28218;53.342;-6.216;2022-07-22T08:35:47;101947.06;;;19.33;100.00
42591;BME280;28218;53.342;-6.216;2022-07-22T08:38:16;101952.03;;;19.36;100.00
42591;BME280;28218;53.342;-6.216;2022-07-22T08:40:44;101938.28;;;19.39;100.00
42591;BME280;28218;53.342;-6.216;2022-07-22T08:43:12;101945.25;;;19.40;100.00
42591;BME280;28218;53.342;-6.216;2022-07-22T08:45:41;101930.47;;;19.44;100.00
42591;BME280;28218;53.342;-6.216;2022-07-22T08:48:09;101930.06;;;19.47;100.00
42591;BME280;28218;53.342;-6.216;2022-07-22T08:50:39;101935.03;;;19.50;100.00
42591;BME280;28218;53.342;-6.216;2022-07-22T08:53:09;101935.03;;;19.50;100.00
42591;BME280;28218;53.342;-6.216;2022-07-22T08:55:41;101933.19;;;19.51;100.00
42591;BME280;28218;53.342;-6.216;2022-07-22T08:58:10;101937.31;;;19.53;100.00
42591;BME280;28218;53.342;-6.216;2022-07-22T09:00:39;101930.00;;;19.62;100.00
42591;BME280;28218;53.342;-6.216;2022-07-22T09:03:18;101937.66;;;19.72;100.00
42591;BME280;28218;53.342;-6.216;2022-07-22T09:05:51;101934.78;;;19.80;100.00
42591;BME280;28218;53.342;-6.216;2022-07-22T09:08:20;101928.22;;;19.82;100.00
42591;BME280;28218;53.342;-6.216;2022-07-22T09:10:48;101928.00;;;19.84;100.00
42591;BME280;28218;53.342;-6.216;2022-07-22T09:13:17;101929.06;;;19.89;100.00
42591;BME280;28218;53.342;-6.216;2022-07-22T09:15:48;101932.81;;;19.95;100.00
42591;BME280;28218;53.342;-6.216;2022-07-22T09:18:17;101920.25;;;20.02;100.00
42591;BME280;28218;53.342;-6.216;2022-07-22T09:20:45;101931.19;;;20.07;100.00
42591;BME280;28218;53.342;-6.216;2022-07-22T09:23:17;101925.00;;;20.13;100.00
42591;BME280;28218;53.342;-6.216;2022-07-22T09:25:48;101927.94;;;20.19;100.00
42591;BME280;28218;53.342;-6.216;2022-07-22T09:28:19;101924.63;;;20.16;100.00
42591;BME280;28218;53.342;-6.216;2022-07-22T09:30:51;101935.53;;;20.22;100.00
42591;BME280;28218;53.342;-6.216;2022-07-22T09:33:22;101929.78;;;20.31;100.00
42591;BME280;28218;53.342;-6.216;2022-07-22T09:35:52;101929.19;;;20.36;100.00
42591;BME280;28218;53.342;-6.216;2022-07-22T09:38:29;101925.28;;;20.38;100.00
42591;BME280;28218;53.342;-6.216;2022-07-22T09:41:01;101926.31;;;20.37;100.00
42591;BME280;28218;53.342;-6.216;2022-07-22T09:43:34;101921.75;;;20.31;100.00
42591;BME280;28218;53.342;-6.216;2022-07-22T09:46:03;101920.13;;;20.30;100.00
42591;BME280;28218;53.342;-6.216;2022-07-22T09:48:32;101921.34;;;20.28;100.00
42591;BME280;28218;53.342;-6.216;2022-07-22T09:51:01;101911.47;;;20.28;100.00
42591;BME280;28218;53.342;-6.216;2022-07-22T09:53:31;101914.97;;;20.29;100.00
42591;BME280;28218;53.342;-6.216;2022-07-22T09:56:01;101910.50;;;20.49;100.00
42591;BME280;28218;53.342;-6.216;2022-07-22T09:58:30;101909.47;;;20.70;100.00
42591;BME280;28218;53.342;-6.216;2022-07-22T10:01:04;101906.59;;;20.85;100.00
42591;BME280;28218;53.342;-6.216;2022-07-22T10:03:34;101909.66;;;20.88;100.00
42591;BME280;28218;53.342;-6.216;2022-07-22T10:06:05;101905.75;;;21.04;100.00
42591;BME280;28218;53.342;-6.216;2022-07-22T10:08:36;101912.31;;;21.15;100.00
42591;BME280;28218;53.342;-6.216;2022-07-22T10:11:06;101904.50;;;21.13;100.00
42591;BME280;28218;53.342;-6.216;2022-07-22T10:13:38;101903.44;;;21.21;100.00
42591;BME280;28218;53.342;-6.216;2022-07-22T10:16:08;101903.66;;;21.19;100.00
42591;BME280;28218;53.342;-6.216;2022-07-22T10:18:37;101899.50;;;21.17;100.00
42591;BME280;28218;53.342;-6.216;2022-07-22T10:21:07;101894.59;;;21.14;100.00
42591;BME280;28218;53.342;-6.216;2022-07-22T10:24:07;101897.03;;;21.29;100.00
42591;BME280;28218;53.342;-6.216;2022-07-22T10:26:49;101901.78;;;21.33;100.00
42591;BME280;28218;53.342;-6.216;2022-07-22T10:29:28;101897.44;;;21.26;100.00
42591;BME280;28218;53.342;-6.216;2022-07-22T10:32:21;101905.28;;;21.21;100.00
42591;BME280;28218;53.342;-6.216;2022-07-22T10:35:21;101902.19;;;21.37;100.00
42591;BME280;28218;53.342;-6.216;2022-07-22T10:37:51;101901.13;;;21.51;100.00
42591;BME280;28218;53.342;-6.216;2022-07-22T10:40:22;101898.22;;;21.53;100.00
42591;BME280;28218;53.342;-6.216;2022-07-22T10:43:09;101895.75;;;21.51;100.00
42591;BME280;28218;53.342;-6.216;2022-07-22T10:45:40;101888.13;;;21.48;100.00
42591;BME280;28218;53.342;-6.216;2022-07-22T10:48:11;101878.81;;;21.57;100.00
42591;BME280;28218;53.342;-6.216;2022-07-22T10:50:42;101880.44;;;21.58;100.00
42591;BME280;28218;53.342;-6.216;2022-07-22T10:53:12;101877.72;;;21.72;100.00
42591;BME280;28218;53.342;-6.216;2022-07-22T10:58:51;101874.34;;;21.38;100.00
42591;BME280;28218;53.342;-6.216;2022-07-22T11:01:23;101879.50;;;21.26;100.00
42591;BME280;28218;53.342;-6.216;2022-07-22T11:03:51;101872.50;;;21.25;100.00
42591;BME280;28218;53.342;-6.216;2022-07-22T11:06:27;101882.59;;;21.30;100.00
42591;BME280;28218;53.342;-6.216;2022-07-22T11:08:57;101869.97;;;21.50;100.00
42591;BME280;28218;53.342;-6.216;2022-07-22T11:11:39;101877.47;;;21.73;100.00
42591;BME280;28218;53.342;-6.216;2022-07-22T11:14:20;101873.69;;;21.94;100.00
42591;BME280;28218;53.342;-6.216;2022-07-22T11:16:50;101875.66;;;22.05;100.00
42591;BME280;28218;53.342;-6.216;2022-07-22T11:19:23;101878.28;;;22.18;100.00
42591;BME280;28218;53.342;-6.216;2022-07-22T11:21:55;101868.53;;;22.24;100.00
42591;BME280;28218;53.342;-6.216;2022-07-22T11:24:24;101865.38;;;22.34;100.00
42591;BME280;28218;53.342;-6.216;2022-07-22T11:26:54;101880.09;;;22.25;100.00
42591;BME280;28218;53.342;-6.216;2022-07-22T11:29:33;101867.72;;;22.24;100.00
42591;BME280;28218;53.342;-6.216;2022-07-22T11:32:04;101860.88;;;22.28;100.00
42591;BME280;28218;53.342;-6.216;2022-07-22T11:34:35;101868.38;;;22.44;100.00
42591;BME280;28218;53.342;-6.216;2022-07-22T11:37:04;101869.56;;;22.55;100.00
42591;BME280;28218;53.342;-6.216;2022-07-22T11:39:32;101873.22;;;22.60;100.00
42591;BME280;28218;53.342;-6.216;2022-07-22T11:42:01;101868.97;;;22.71;100.00
42591;BME280;28218;53.342;-6.216;2022-07-22T11:44:32;101864.44;;;22.71;100.00
42591;BME280;28218;53.342;-6.216;2022-07-22T11:47:00;101861.06;;;22.76;100.00
42591;BME280;28218;53.342;-6.216;2022-07-22T11:49:30;101870.41;;;22.74;100.00
42591;BME280;28218;53.342;-6.216;2022-07-22T11:52:00;101868.06;;;22.59;100.00
42591;BME280;28218;53.342;-6.216;2022-07-22T11:54:28;101862.69;;;22.59;100.00
42591;BME280;28218;53.342;-6.216;2022-07-22T11:56:56;101865.75;;;22.62;100.00
42591;BME280;28218;53.342;-6.216;2022-07-22T11:59:24;101856.59;;;22.70;100.00
42591;BME280;28218;53.342;-6.216;2022-07-22T12:01:54;101862.19;;;22.68;100.00
42591;BME280;28218;53.342;-6.216;2022-07-22T12:04:24;101866.25;;;22.78;100.00
42591;BME280;28218;53.342;-6.216;2022-07-22T12:06:54;101859.00;;;22.78;100.00
42591;BME280;28218;53.342;-6.216;2022-07-22T12:09:26;101859.94;;;22.90;100.00
42591;BME280;28218;53.342;-6.216;2022-07-22T12:11:57;101866.97;;;22.91;100.00
42591;BME280;28218;53.342;-6.216;2022-07-22T12:14:27;101868.84;;;22.84;100.00
42591;BME280;28218;53.342;-6.216;2022-07-22T12:16:59;101860.19;;;22.64;100.00
42591;BME280;28218;53.342;-6.216;2022-07-22T12:19:28;101861.94;;;22.52;100.00
42591;BME280;28218;53.342;-6.216;2022-07-22T12:21:59;101853.63;;;22.35;100.00
42591;BME280;28218;53.342;-6.216;2022-07-22T12:24:30;101849.88;;;22.36;100.00
42591;BME280;28218;53.342;-6.216;2022-07-22T12:27:00;101854.34;;;22.17;100.00
42591;BME280;28218;53.342;-6.216;2022-07-22T12:29:30;101848.66;;;22.00;100.00
42591;BME280;28218;53.342;-6.216;2022-07-22T12:32:05;101845.44;;;22.23;100.00
42591;BME280;28218;53.342;-6.216;2022-07-22T12:34:36;101846.91;;;22.44;100.00
42591;BME280;28218;53.342;-6.216;2022-07-22T12:37:13;101843.25;;;22.63;100.00
42591;BME280;28218;53.342;-6.216;2022-07-22T12:39:56;101845.94;;;22.82;100.00
42591;BME280;28218;53.342;-6.216;2022-07-22T12:42:26;101845.25;;;22.93;100.00
42591;BME280;28218;53.342;-6.216;2022-07-22T12:45:00;101850.53;;;23.18;100.00
42591;BME280;28218;53.342;-6.216;2022-07-22T12:47:41;101841.91;;;23.16;100.00